Time;durP1;ratioP1;P1;durP2;ratioP2;P2;SDS_P1;SDS_P2;PMS_P1;PMS_P2;Temp;Humidity;BMP_temperature;BMP_pressure;BME280_temperature;BME280_humidity;BME280_pressure;Samples;Min_cycle;Max_cycle;Signal;HPM_P1;HPM_P2
2022/07/29 00:01:39;;;;;;;7.78;7.07;;;;;;;23.54;70.10;94827.44;5069040;28;20547;-87
2022/07/29 00:04:06;;;;;;;8.38;7.13;;;;;;;23.54;69.91;94837.88;5056633;28;20587;-86
2022/07/29 00:06:33;;;;;;;7.55;6.85;;;;;;;23.52;70.23;94837.25;5057830;28;20548;-86
2022/07/29 00:09:01;;;;;;;8.48;6.90;;;;;;;22.96;69.95;94760.63;5057075;28;20183;-85
2022/07/29 00:11:28;;;;;;;6.75;6.00;;;;;;;23.47;69.84;94850.16;5058029;28;20202;-87
2022/07/29 00:13:55;;;;;;;9.60;6.60;;;;;;;22.80;68.88;94740.28;5056185;28;20582;-88
2022/07/29 00:16:22;;;;;;;6.82;6.25;;;;;;;23.40;69.38;94838.97;5057344;28;20379;-86
2022/07/29 00:18:49;;;;;;;7.78;6.38;;;;;;;23.37;68.99;94831.59;5057593;28;20304;-87
2022/07/29 00:21:16;;;;;;;6.68;6.07;;;;;;;23.34;69.63;94827.59;5056814;28;20199;-87
2022/07/29 00:23:43;;;;;;;6.88;6.28;;;;;;;23.31;69.32;94824.59;5057168;28;20195;-85
2022/07/29 00:26:11;;;;;;;7.03;6.43;;;;;;;22.25;69.29;94667.09;5056126;28;20190;-88
2022/07/29 00:28:38;;;;;;;7.75;6.40;;;;;;;23.29;69.28;94830.03;5056043;28;20290;-88
2022/07/29 00:31:05;;;;;;;6.65;6.05;;;;;;;22.43;69.54;94706.25;5056883;28;20190;-85
2022/07/29 00:33:32;;;;;;;6.72;6.10;;;;;;;23.26;69.53;94828.63;5057222;28;20191;-86
2022/07/29 00:35:58;;;;;;;6.78;6.07;;;;;;;23.24;69.84;94833.28;5057203;28;20682;-86
2022/07/29 00:38:25;;;;;;;8.40;6.72;;;;;;;23.22;70.01;94830.06;5058003;28;20187;-86
2022/07/29 00:40:52;;;;;;;7.78;7.00;;;;;;;22.76;70.37;94765.97;5075005;28;20203;-86
2022/07/29 00:43:20;;;;;;;10.02;6.65;;;;;;;23.25;70.33;94836.69;5058344;28;20250;-85
2022/07/29 00:45:47;;;;;;;8.10;6.80;;;;;;;22.76;70.29;94770.41;5058983;28;20215;-86
2022/07/29 00:48:14;;;;;;;9.13;6.78;;;;;;;21.60;70.67;94594.31;5057089;28;20210;-86
2022/07/29 00:50:41;;;;;;;7.50;6.85;;;;;;;23.18;70.67;94846.38;5056508;28;20673;-87
2022/07/29 00:53:08;;;;;;;7.53;6.45;;;;;;;23.17;71.11;94848.19;5056653;28;20658;-86
2022/07/29 00:55:36;;;;;;;7.93;7.22;;;;;;;22.95;70.88;94820.84;5055791;28;20202;-86
2022/07/29 00:58:03;;;;;;;7.50;6.75;;;;;;;23.06;71.31;94830.63;5056772;28;20248;-86
2022/07/29 01:00:32;;;;;;;9.93;8.73;;;;;;;23.16;71.49;94838.75;5056757;28;20230;-86
2022/07/29 01:02:59;;;;;;;9.73;8.73;;;;;;;21.99;71.74;94660.19;5056974;28;20186;-85
2022/07/29 01:05:29;;;;;;;9.45;8.48;;;;;;;23.13;71.99;94839.19;5056074;28;20626;-87
2022/07/29 01:07:57;;;;;;;9.80;8.80;;;;;;;23.00;72.32;94824.41;5056722;28;20199;-86
2022/07/29 01:10:25;;;;;;;9.85;8.77;;;;;;;22.86;72.27;94791.59;5055966;28;20190;-86
2022/07/29 01:12:55;;;;;;;10.77;9.68;;;;;;;23.04;72.47;94825.59;5055086;28;20282;-85
2022/07/29 01:15:22;;;;;;;10.50;8.88;;;;;;;22.70;72.94;94776.44;5053174;28;20592;-85
2022/07/29 01:18:01;;;;;;;10.98;8.82;;;;;;;22.95;72.66;94805.19;5052621;28;20558;-85
2022/07/29 01:20:46;;;;;;;12.65;8.77;;;;;;;22.92;72.86;94806.41;5052911;28;20248;-87
2022/07/29 01:23:38;;;;;;;9.80;8.80;;;;;;;21.93;73.12;94653.19;5053286;28;20297;-84
2022/07/29 01:26:24;;;;;;;9.95;8.95;;;;;;;22.93;72.81;94812.44;5052835;28;20221;-85
2022/07/29 01:29:00;;;;;;;11.15;9.25;;;;;;;22.71;73.43;94778.03;5052692;28;20222;-89
2022/07/29 01:31:34;;;;;;;10.18;9.18;;;;;;;22.89;73.52;94801.59;5053248;28;20233;-88
2022/07/29 01:34:06;;;;;;;10.63;9.55;;;;;;;22.88;73.30;94807.00;5053296;28;20238;-88
2022/07/29 01:36:38;;;;;;;10.45;9.23;;;;;;;20.38;73.44;94426.13;5053060;28;20195;-89
2022/07/29 01:39:12;;;;;;;10.75;9.13;;;;;;;22.88;74.09;94809.63;5052264;28;20698;-89
2022/07/29 01:41:47;;;;;;;10.43;9.00;;;;;;;22.54;73.57;94751.69;5052784;28;20194;-88
2022/07/29 01:44:21;;;;;;;10.98;9.23;;;;;;;22.88;73.71;94801.81;5052975;28;20197;-88
2022/07/29 01:46:53;;;;;;;10.07;9.18;;;;;;;22.88;74.19;94812.22;5053145;28;20190;-88
2022/07/29 01:49:25;;;;;;;13.80;9.25;;;;;;;22.38;74.23;94732.13;5054176;28;20685;-89
2022/07/29 01:51:58;;;;;;;11.38;9.05;;;;;;;22.87;74.67;94801.00;5068102;28;20191;-88
2022/07/29 01:54:31;;;;;;;10.70;9.70;;;;;;;21.41;73.98;94567.38;5062193;28;20248;-87
2022/07/29 01:57:00;;;;;;;11.32;9.07;;;;;;;21.21;74.52;94544.03;5052357;28;20608;-83
2022/07/29 01:59:30;;;;;;;10.55;9.55;;;;;;;22.19;74.43;94696.56;5052298;28;20227;-83
2022/07/29 02:01:59;;;;;;;10.23;9.32;;;;;;;22.23;74.41;94705.56;5052345;28;20195;-83
2022/07/29 02:04:28;;;;;;;9.65;8.65;;;;;;;22.83;74.89;94799.81;5051593;28;20191;-83
2022/07/29 02:06:58;;;;;;;10.23;9.23;;;;;;;22.55;74.99;94758.50;5051819;28;20194;-84
2022/07/29 02:09:26;;;;;;;9.98;8.57;;;;;;;22.85;74.67;94804.84;5051819;28;20191;-84
2022/07/29 02:11:56;;;;;;;9.95;8.25;;;;;;;22.66;74.27;94762.22;5052399;28;20218;-85
2022/07/29 02:14:25;;;;;;;10.25;8.60;;;;;;;22.79;74.54;94785.59;5052242;28;20684;-84
2022/07/29 02:16:57;;;;;;;8.38;7.57;;;;;;;21.26;73.89;94553.81;5052857;28;20203;-84
2022/07/29 02:19:27;;;;;;;10.85;7.85;;;;;;;22.60;73.19;94768.31;5052339;28;20234;-86
2022/07/29 02:21:57;;;;;;;11.30;7.93;;;;;;;22.73;72.83;94781.25;5052227;28;20260;-87
2022/07/29 02:24:25;;;;;;;11.40;7.55;;;;;;;22.72;72.81;94782.25;5051610;28;20199;-87
2022/07/29 02:26:55;;;;;;;8.88;7.32;;;;;;;21.21;73.40;94559.63;5052252;28;20206;-87
2022/07/29 02:29:26;;;;;;;8.73;7.82;;;;;;;22.68;73.54;94781.09;5051923;28;20205;-87
2022/07/29 02:31:56;;;;;;;10.68;8.57;;;;;;;22.49;72.96;94741.88;5052328;28;20201;-87
2022/07/29 02:34:24;;;;;;;9.27;8.30;;;;;;;22.01;73.00;94663.38;5052301;28;20209;-87
2022/07/29 02:36:52;;;;;;;8.82;7.93;;;;;;;22.33;73.29;94708.53;5053234;28;20209;-87
2022/07/29 02:39:20;;;;;;;10.45;8.55;;;;;;;21.97;73.58;94651.78;5059304;28;20270;-87
2022/07/29 02:41:50;;;;;;;8.75;7.90;;;;;;;21.94;74.24;94657.41;5065628;28;20191;-87
2022/07/29 02:44:19;;;;;;;9.35;8.43;;;;;;;21.99;74.03;94660.19;5053035;28;20295;-87
2022/07/29 02:46:52;;;;;;;10.45;9.35;;;;;;;21.92;73.73;94643.78;5052520;28;20230;-86
2022/07/29 02:49:31;;;;;;;14.10;9.25;;;;;;;21.49;73.70;94587.16;5036247;28;20230;-88
2022/07/29 02:52:02;;;;;;;13.38;8.40;;;;;;;21.54;73.88;94592.53;5052643;28;20743;-86
2022/07/29 02:54:43;;;;;;;9.75;8.85;;;;;;;22.15;74.01;94687.56;5051034;28;20202;-88
2022/07/29 02:57:18;;;;;;;9.50;8.45;;;;;;;22.61;74.05;94762.88;5051989;28;20559;-89
2022/07/29 02:59:48;;;;;;;9.55;8.25;;;;;;;22.65;73.61;94761.44;5051067;28;20229;-87
2022/07/29 03:02:17;;;;;;;9.13;8.23;;;;;;;22.63;73.58;94758.25;5051779;28;20203;-87
2022/07/29 03:04:47;;;;;;;8.75;7.72;;;;;;;20.94;73.58;94496.53;5051439;28;20187;-87
2022/07/29 03:07:19;;;;;;;10.43;7.80;;;;;;;22.42;73.55;94738.53;5051567;28;20570;-84
2022/07/29 03:09:47;;;;;;;11.95;8.55;;;;;;;22.16;73.62;94697.78;5051867;28;20187;-85
2022/07/29 03:12:15;;;;;;;10.18;8.35;;;;;;;22.56;73.85;94767.91;5054215;28;20212;-85
2022/07/29 03:14:43;;;;;;;9.43;8.32;;;;;;;22.56;73.82;94765.31;5053125;28;20650;-85
2022/07/29 03:17:10;;;;;;;14.65;8.57;;;;;;;22.58;73.61;94763.28;5058733;28;20187;-84
2022/07/29 03:19:38;;;;;;;10.30;8.35;;;;;;;22.56;73.88;94772.34;5057361;28;20227;-84
2022/07/29 03:22:06;;;;;;;10.43;8.63;;;;;;;22.52;73.85;94780.56;5054950;28;20578;-84
2022/07/29 03:24:36;;;;;;;9.52;8.52;;;;;;;21.81;74.18;94673.91;5067857;28;20222;-84
2022/07/29 03:27:05;;;;;;;9.43;8.52;;;;;;;22.47;74.34;94772.56;5069760;28;20199;-82
2022/07/29 03:29:34;;;;;;;9.63;7.95;;;;;;;22.13;74.28;94728.66;5070733;28;20262;-85
2022/07/29 03:32:04;;;;;;;10.25;7.85;;;;;;;21.56;74.10;94653.00;5054798;28;20195;-87
2022/07/29 03:34:32;;;;;;;13.48;8.20;;;;;;;22.04;73.96;94735.88;5057401;28;20191;-85
2022/07/29 03:36:59;;;;;;;9.35;7.95;;;;;;;22.12;74.35;94738.28;5052537;28;20191;-86
2022/07/29 03:39:32;;;;;;;10.45;8.50;;;;;;;22.02;74.50;94727.47;5050534;28;20659;-87
2022/07/29 03:42:02;;;;;;;12.68;7.97;;;;;;;21.66;74.28;94674.16;5050972;28;20194;-88
2022/07/29 03:44:29;;;;;;;9.73;8.60;;;;;;;22.36;74.38;94790.66;5051963;28;20198;-87
2022/07/29 03:46:58;;;;;;;9.65;8.65;;;;;;;21.51;74.47;94663.22;5053460;28;20193;-87
2022/07/29 03:49:27;;;;;;;11.40;8.38;;;;;;;21.64;74.87;94691.78;5077498;28;20677;-87
2022/07/29 03:51:55;;;;;;;11.02;8.23;;;;;;;22.32;74.87;94779.84;5082851;28;20574;-87
2022/07/29 03:54:22;;;;;;;10.23;8.63;;;;;;;21.47;74.90;94662.03;5077395;28;20201;-88
2022/07/29 03:56:53;;;;;;;9.35;8.45;;;;;;;22.22;75.09;94777.72;5080167;28;20194;-88
2022/07/29 03:59:22;;;;;;;12.05;9.60;;;;;;;20.98;75.28;94588.72;5071569;28;20255;-87
2022/07/29 04:01:50;;;;;;;11.82;8.77;;;;;;;21.64;75.29;94702.22;5065379;28;20221;-87
2022/07/29 04:04:18;;;;;;;11.82;9.13;;;;;;;21.01;75.01;94598.69;5074924;28;20585;-87
2022/07/29 04:06:47;;;;;;;10.38;8.88;;;;;;;22.02;75.22;94763.94;5063676;28;20209;-89
2022/07/29 04:09:14;;;;;;;11.10;8.93;;;;;;;20.32;75.40;94490.06;5051389;28;20205;-87
2022/07/29 04:11:42;;;;;;;10.90;8.68;;;;;;;22.25;75.54;94792.13;5051232;28;20206;-86
2022/07/29 04:14:10;;;;;;;11.00;8.63;;;;;;;21.18;75.61;94619.84;5051312;28;20209;-86
2022/07/29 04:16:38;;;;;;;10.35;9.20;;;;;;;21.51;75.65;94678.84;5051138;28;20205;-87
2022/07/29 04:19:04;;;;;;;13.55;9.15;;;;;;;22.23;75.88;94786.31;5050321;28;20305;-88
2022/07/29 04:21:31;;;;;;;10.60;8.50;;;;;;;22.24;76.15;94785.34;5049474;28;20226;-85
2022/07/29 04:23:58;;;;;;;11.43;9.57;;;;;;;22.26;76.50;94783.31;5050472;28;20615;-87
2022/07/29 04:26:25;;;;;;;12.23;9.90;;;;;;;22.00;76.54;94748.53;5050213;28;20195;-87
2022/07/29 04:28:52;;;;;;;11.32;9.82;;;;;;;20.99;76.42;94585.13;5049770;28;20199;-86
2022/07/29 04:31:20;;;;;;;11.82;10.30;;;;;;;20.96;76.58;94582.91;5049449;28;20667;-87
2022/07/29 04:33:47;;;;;;;14.05;10.98;;;;;;;22.04;76.74;94754.13;5061057;28;20191;-88
2022/07/29 04:36:14;;;;;;;13.05;11.57;;;;;;;22.31;76.77;94803.53;5062330;28;20195;-89
2022/07/29 04:38:41;;;;;;;16.88;11.68;;;;;;;21.67;76.60;94701.78;5052821;28;20198;-85
2022/07/29 04:41:08;;;;;;;14.25;10.65;;;;;;;22.34;76.72;94800.50;5062447;28;20221;-86
2022/07/29 04:43:35;;;;;;;13.15;11.18;;;;;;;22.20;76.47;94771.13;5070188;28;20186;-84
2022/07/29 04:46:03;;;;;;;12.88;11.57;;;;;;;21.27;76.20;94626.44;5051786;28;20191;-84
2022/07/29 04:48:31;;;;;;;14.07;10.75;;;;;;;22.46;75.86;94804.88;5050738;28;20685;-89
2022/07/29 04:50:58;;;;;;;14.93;11.82;;;;;;;22.51;75.86;94809.44;5057782;28;20218;-87
2022/07/29 04:53:26;;;;;;;13.70;10.48;;;;;;;22.14;76.02;94745.88;5053677;28;20195;-87
2022/07/29 04:55:53;;;;;;;11.55;10.35;;;;;;;21.52;75.48;94650.00;5057524;28;20195;-90
2022/07/29 04:58:20;;;;;;;11.70;10.50;;;;;;;22.42;75.60;94776.81;5054496;28;20191;-89
2022/07/29 05:00:47;;;;;;;12.82;11.52;;;;;;;22.26;75.47;94749.44;5054604;28;20222;-90
2022/07/29 05:03:14;;;;;;;12.02;9.90;;;;;;;22.68;75.69;94807.16;5054041;28;20195;-84
2022/07/29 05:05:43;;;;;;;12.60;11.30;;;;;;;22.68;76.41;94814.97;5054236;28;20202;-90
2022/07/29 05:08:10;;;;;;;14.00;11.80;;;;;;;22.39;75.79;94754.56;5054148;28;20684;-92
2022/07/29 05:10:37;;;;;;;12.50;10.73;;;;;;;22.45;75.39;94760.75;5045926;28;20195;-88
2022/07/29 05:13:06;;;;;;;14.00;10.25;;;;;;;22.86;75.07;94815.06;5054260;28;20188;-89
2022/07/29 05:15:33;;;;;;;12.63;11.32;;;;;;;22.90;75.00;94813.66;5048072;28;20199;-93
2022/07/29 05:18:01;;;;;;;15.60;12.57;;;;;;;22.96;74.97;94812.81;5058467;28;20231;-89
2022/07/29 05:20:29;;;;;;;12.27;11.02;;;;;;;22.68;74.77;94765.44;5057883;28;20226;-89
2022/07/29 05:23:01;;;;;;;12.55;11.35;;;;;;;22.90;75.24;94786.78;5053253;28;20190;-88
2022/07/29 05:25:29;;;;;;;13.75;10.90;;;;;;;23.07;76.37;94789.66;5054576;28;20198;-88
2022/07/29 05:27:57;;;;;;;19.92;12.23;;;;;;;23.14;75.17;94796.41;5054761;28;20195;-88
2022/07/29 05:30:25;;;;;;;12.65;10.48;;;;;;;21.96;75.61;94596.28;5052573;28;20225;-88
2022/07/29 05:32:52;;;;;;;7.80;6.85;;;;;;;23.62;75.37;94813.28;5053207;28;20198;-88
2022/07/29 05:35:19;;;;;;;7.50;6.75;;;;;;;23.44;74.63;94756.63;5052549;28;20194;-88
2022/07/29 05:37:48;;;;;;;9.43;6.75;;;;;;;23.86;72.80;94794.19;5053639;28;20621;-88
2022/07/29 05:40:17;;;;;;;10.52;6.30;;;;;;;24.01;70.67;94812.13;5056258;28;20202;-90
2022/07/29 05:42:44;;;;;;;11.10;7.32;;;;;;;24.19;70.69;94825.19;5055451;28;20198;-89
2022/07/29 05:45:14;;;;;;;7.68;6.72;;;;;;;24.29;70.66;94809.75;5052921;28;20197;-88
2022/07/29 05:47:41;;;;;;;8.15;6.47;;;;;;;24.34;70.49;94787.41;5041568;28;20243;-88
2022/07/29 05:50:09;;;;;;;9.43;6.68;;;;;;;24.53;69.67;94795.03;5060433;28;20687;-89
2022/07/29 05:52:36;;;;;;;8.55;7.25;;;;;;;23.81;68.48;94649.59;5051936;28;20257;-89
2022/07/29 05:55:05;;;;;;;6.78;6.13;;;;;;;23.25;68.15;94541.81;5056408;28;20209;-89
2022/07/29 05:57:34;;;;;;;8.23;7.00;;;;;;;25.25;67.89;94833.44;5053040;28;20222;-89
2022/07/29 06:00:00;;;;;;;8.75;6.40;;;;;;;25.47;67.20;94833.69;5054107;28;20199;-88
2022/07/29 06:02:27;;;;;;;8.13;6.72;;;;;;;24.51;66.04;94653.22;5051922;28;20229;-88
2022/07/29 06:04:54;;;;;;;7.50;6.38;;;;;;;24.89;65.85;94680.81;5052240;28;20206;-90
2022/07/29 06:07:22;;;;;;;11.18;6.68;;;;;;;25.91;64.69;94811.41;5053074;28;20206;-91
2022/07/29 06:09:49;;;;;;;8.52;6.55;;;;;;;25.94;64.45;94800.44;5036200;28;20199;-89
2022/07/29 06:12:16;;;;;;;7.47;6.30;;;;;;;26.27;63.52;94833.91;5053011;28;20555;-90
2022/07/29 06:14:45;;;;;;;14.20;6.72;;;;;;;26.02;61.52;94762.63;5051570;28;20309;-90
2022/07/29 06:17:12;;;;;;;8.18;6.57;;;;;;;26.09;60.35;94762.50;5051745;28;20238;-90
2022/07/29 06:19:39;;;;;;;6.13;5.53;;;;;;;26.61;59.82;94833.28;5051964;28;20218;-90
2022/07/29 06:22:07;;;;;;;7.82;5.80;;;;;;;26.64;60.36;94828.34;5051770;28;20230;-90
2022/07/29 06:24:34;;;;;;;6.55;5.30;;;;;;;25.18;60.36;94597.19;5035131;28;20203;-90
2022/07/29 06:27:02;;;;;;;8.57;6.18;;;;;;;26.55;58.81;94781.72;5052771;28;20197;-90
2022/07/29 06:29:29;;;;;;;6.40;5.40;;;;;;;25.77;59.42;94643.16;5052804;28;20230;-90
2022/07/29 06:31:57;;;;;;;7.45;5.53;;;;;;;27.02;58.92;94822.44;5053054;28;20689;-92
2022/07/29 06:34:25;;;;;;;7.13;5.57;;;;;;;27.25;58.76;94831.28;5052738;28;20203;-91
2022/07/29 06:36:52;;;;;;;5.25;4.85;;;;;;;27.17;58.23;94808.03;5052845;28;20314;-89
2022/07/29 06:39:20;;;;;;;6.43;5.45;;;;;;;27.47;58.26;94833.97;5056121;28;20357;-91
2022/07/29 06:41:48;;;;;;;6.18;5.57;;;;;;;27.27;57.35;94768.78;5062264;28;20210;-91
2022/07/29 06:44:15;;;;;;;4.93;4.38;;;;;;;27.75;57.12;94839.13;5059214;28;20194;-89
2022/07/29 06:46:42;;;;;;;6.05;4.90;;;;;;;27.91;56.36;94824.38;5052948;28;20195;-90
2022/07/29 06:49:13;;;;;;;8.02;4.72;;;;;;;27.33;55.76;94712.69;5054732;28;20325;-93
2022/07/29 06:51:41;;;;;;;5.38;4.30;;;;;;;28.21;54.95;94820.56;5054053;28;20230;-93
2022/07/29 06:54:08;;;;;;;8.52;4.97;;;;;;;28.35;54.13;94827.06;5053307;28;20195;-90
2022/07/29 06:56:37;;;;;;;4.82;4.43;;;;;;;28.27;53.58;94788.00;5034714;28;20199;-90
2022/07/29 06:59:05;;;;;;;6.13;5.53;;;;;;;27.70;54.12;94680.56;5051408;28;20209;-92
2022/07/29 07:01:32;;;;;;;5.45;4.78;;;;;;;27.66;52.89;94653.97;5051130;28;20230;-92
2022/07/29 07:03:58;;;;;;;5.28;4.78;;;;;;;28.30;52.38;94728.88;5057541;28;20266;-90
2022/07/29 07:06:30;;;;;;;5.00;4.20;;;;;;;29.00;53.18;94818.28;5056712;28;20298;-91
2022/07/29 07:08:57;;;;;;;7.97;4.25;;;;;;;27.88;52.02;94624.28;5051968;28;20198;-92
2022/07/29 07:11:25;;;;;;;5.32;4.70;;;;;;;28.06;51.71;94626.56;5054232;28;20285;-90
2022/07/29 07:13:52;;;;;;;5.10;4.60;;;;;;;28.15;51.81;94637.44;5053812;28;20263;-91
2022/07/29 07:16:20;;;;;;;8.45;4.32;;;;;;;29.37;51.02;94820.19;5050316;28;20191;-90
2022/07/29 07:18:48;;;;;;;5.53;4.50;;;;;;;29.52;51.19;94813.44;5052794;28;20253;-92
2022/07/29 07:21:16;;;;;;;5.32;4.82;;;;;;;29.62;50.96;94816.16;5052190;28;20226;-92
2022/07/29 07:23:45;;;;;;;6.75;4.47;;;;;;;28.95;50.98;94707.63;5052753;28;20285;-91
2022/07/29 07:26:19;;;;;;;5.45;4.82;;;;;;;29.61;51.21;94788.22;5052078;28;20254;-90
2022/07/29 07:28:47;;;;;;;5.80;4.45;;;;;;;29.52;50.59;94766.00;5034536;28;20262;-91
2022/07/29 07:31:18;;;;;;;5.65;4.70;;;;;;;29.30;50.16;94716.06;5039383;28;20191;-92
2022/07/29 07:33:47;;;;;;;4.82;4.40;;;;;;;29.45;50.30;94729.34;5049930;28;20195;-93
2022/07/29 07:36:15;;;;;;;4.88;4.47;;;;;;;29.43;50.24;94720.88;5035417;28;20730;-91
2022/07/29 07:38:47;;;;;;;5.10;4.60;;;;;;;30.06;50.15;94811.44;5052448;28;20230;-92
2022/07/29 07:41:16;;;;;;;5.00;4.60;;;;;;;28.74;49.79;94590.06;5051676;28;20244;-93
2022/07/29 07:43:44;;;;;;;5.15;4.63;;;;;;;28.17;49.03;94504.66;5054629;28;20205;-95
2022/07/29 07:46:11;;;;;;;6.43;4.70;;;;;;;30.06;49.33;94811.44;5054827;28;20644;-90
2022/07/29 07:48:38;;;;;;;4.68;4.00;;;;;;;30.11;49.52;94808.00;5035938;28;20183;-88
2022/07/29 07:51:09;;;;;;;5.22;3.92;;;;;;;29.06;49.71;94644.50;5051580;28;20198;-93
2022/07/29 07:53:36;;;;;;;5.07;4.57;;;;;;;30.05;49.04;94782.66;5051370;28;20236;-87
2022/07/29 07:56:06;;;;;;;5.35;4.10;;;;;;;29.06;49.21;94619.00;5050042;28;20194;-90
2022/07/29 07:58:34;;;;;;;4.63;4.18;;;;;;;30.44;48.36;94807.66;5050993;28;20203;-85
2022/07/29 08:01:02;;;;;;;4.82;4.30;;;;;;;30.47;48.47;94812.41;5051151;28;20195;-90
2022/07/29 08:03:29;;;;;;;5.13;3.50;;;;;;;30.23;48.03;94750.59;5053736;28;20191;-87
2022/07/29 08:05:56;;;;;;;5.60;3.85;;;;;;;30.62;48.39;94811.66;5050126;28;20667;-90
2022/07/29 08:08:23;;;;;;;5.10;3.78;;;;;;;29.84;47.40;94673.66;5049995;28;20199;-87
2022/07/29 08:10:55;;;;;;;5.10;3.80;;;;;;;30.77;47.49;94803.00;5050234;28;20195;-82
2022/07/29 08:13:24;;;;;;;4.68;3.55;;;;;;;30.84;46.97;94810.69;5049367;28;20624;-90
2022/07/29 08:15:57;;;;;;;3.97;3.58;;;;;;;30.55;46.45;94758.31;5050035;28;20282;-92
2022/07/29 08:18:24;;;;;;;4.57;3.70;;;;;;;29.35;46.84;94573.81;5048925;28;20226;-84
2022/07/29 08:20:51;;;;;;;4.50;4.10;;;;;;;30.21;46.35;94698.06;5048854;28;20191;-88
2022/07/29 08:23:18;;;;;;;4.38;3.60;;;;;;;31.03;45.84;94811.75;5051277;28;20218;-88
2022/07/29 08:25:45;;;;;;;8.82;3.70;;;;;;;31.07;45.92;94815.44;5052599;28;20198;-87
2022/07/29 08:28:12;;;;;;;4.43;3.72;;;;;;;29.96;45.56;94643.34;5053080;28;20207;-86
2022/07/29 08:30:40;;;;;;;6.22;4.22;;;;;;;30.98;45.66;94809.09;5053751;28;20194;-88
2022/07/29 08:33:07;;;;;;;4.82;4.05;;;;;;;30.21;45.85;94692.78;5054184;28;20194;-87
2022/07/29 08:35:34;;;;;;;4.10;3.70;;;;;;;30.07;45.58;94667.94;5060331;28;20183;-87
2022/07/29 08:38:03;;;;;;;5.07;3.50;;;;;;;30.88;45.44;94782.69;5068344;28;20187;-85
2022/07/29 08:40:30;;;;;;;3.97;3.45;;;;;;;29.59;45.52;94584.75;5055061;28;20199;-86
2022/07/29 08:43:06;;;;;;;6.18;3.83;;;;;;;30.59;45.33;94740.09;5055118;28;20613;-86
2022/07/29 08:45:45;;;;;;;7.47;3.75;;;;;;;30.72;45.54;94761.53;5062715;28;20244;-87
2022/07/29 08:48:13;;;;;;;4.32;3.97;;;;;;;30.67;45.47;94743.03;5055695;28;20225;-87
2022/07/29 08:50:41;;;;;;;4.88;3.47;;;;;;;31.04;45.19;94786.13;5054291;28;20230;-88
2022/07/29 08:53:11;;;;;;;5.28;3.70;;;;;;;31.17;44.76;94804.09;5053484;28;20201;-86
2022/07/29 08:55:40;;;;;;;4.00;3.70;;;;;;;31.19;45.23;94802.78;5052543;28;20576;-87
2022/07/29 08:58:08;;;;;;;4.70;3.47;;;;;;;30.37;45.07;94663.78;5052851;28;20198;-86
2022/07/29 09:00:37;;;;;;;5.57;3.70;;;;;;;31.32;43.85;94798.06;5051349;28;20210;-85
2022/07/29 09:03:07;;;;;;;5.47;3.83;;;;;;;30.93;44.16;94735.16;5049837;28;20230;-87
2022/07/29 09:05:34;;;;;;;3.60;3.30;;;;;;;31.18;44.55;94780.06;5050531;28;20190;-86
2022/07/29 09:08:01;;;;;;;3.65;3.35;;;;;;;31.18;44.12;94763.41;5050480;28;20195;-89
2022/07/29 09:10:29;;;;;;;3.40;3.10;;;;;;;30.63;44.04;94678.59;5032756;28;20203;-86
2022/07/29 09:12:56;;;;;;;4.03;3.63;;;;;;;31.37;43.59;94782.19;5049936;28;20274;-86
2022/07/29 09:15:25;;;;;;;3.65;3.35;;;;;;;31.30;43.88;94771.09;5050590;28;20268;-88
2022/07/29 09:17:52;;;;;;;4.05;3.65;;;;;;;31.45;43.85;94781.66;5052790;28;20267;-82
2022/07/29 09:20:22;;;;;;;4.75;3.85;;;;;;;30.95;43.67;94702.13;5051016;28;20563;-81
2022/07/29 09:22:49;;;;;;;5.68;3.75;;;;;;;31.32;43.38;94788.28;5049920;28;20207;-88
2022/07/29 09:25:32;;;;;;;4.30;4.00;;;;;;;31.17;43.69;94759.16;5050431;28;20278;-84
2022/07/29 09:28:07;;;;;;;4.15;3.67;;;;;;;31.17;43.87;94757.31;5048831;28;20222;-85
2022/07/29 09:30:35;;;;;;;4.22;3.83;;;;;;;31.11;44.10;94739.91;5045925;28;20198;-85
2022/07/29 09:33:04;;;;;;;3.33;3.13;;;;;;;31.42;43.89;94776.88;5055342;28;20722;-84
2022/07/29 09:35:32;;;;;;;5.47;3.30;;;;;;;31.42;43.92;94776.88;5051391;28;20614;-84
2022/07/29 09:38:11;;;;;;;4.45;3.53;;;;;;;31.43;43.86;94778.47;5053935;28;20191;-85
2022/07/29 09:40:38;;;;;;;3.90;3.60;;;;;;;31.47;43.64;94771.59;5057306;28;20226;-86
2022/07/29 09:43:11;;;;;;;3.75;3.45;;;;;;;30.75;43.55;94659.88;5069069;28;20223;-85
2022/07/29 09:45:39;;;;;;;4.05;3.70;;;;;;;30.54;43.74;94619.47;5067616;28;20205;-85
2022/07/29 09:48:15;;;;;;;3.60;3.30;;;;;;;31.29;43.20;94735.94;5067160;28;20202;-87
2022/07/29 09:50:46;;;;;;;4.32;3.55;;;;;;;31.24;42.73;94754.41;5050579;28;20654;-90
2022/07/29 09:53:30;;;;;;;5.38;3.53;;;;;;;31.36;42.46;94770.81;5054386;28;20226;-86
2022/07/29 09:55:57;;;;;;;5.05;3.40;;;;;;;31.34;42.64;94770.28;5052181;28;20194;-86
2022/07/29 09:58:24;;;;;;;3.67;3.38;;;;;;;29.88;43.01;94543.69;5058006;28;20191;-87
2022/07/29 10:00:55;;;;;;;4.47;3.75;;;;;;;31.38;42.73;94763.41;5054645;28;20717;-85
2022/07/29 10:03:23;;;;;;;3.95;3.60;;;;;;;31.39;42.83;94758.91;5051832;28;20211;-85
2022/07/29 10:08:44;;;;;;;4.22;3.83;;;;;;;31.41;43.42;94743.59;5082067;27;1368195;-88
2022/07/29 10:11:12;;;;;;;4.95;4.25;;;;;;;31.03;43.33;94714.00;5108088;28;20185;-87
2022/07/29 10:13:39;;;;;;;4.75;4.15;;;;;;;31.07;43.32;94703.69;5107960;28;20200;-90
2022/07/29 10:16:08;;;;;;;4.65;4.25;;;;;;;31.30;43.29;94740.16;5106657;28;20201;-87
2022/07/29 10:18:35;;;;;;;5.22;4.70;;;;;;;31.33;43.44;94736.19;5107644;28;20200;-86
2022/07/29 10:21:02;;;;;;;4.85;4.18;;;;;;;31.36;43.68;94738.31;5104738;28;20185;-86
2022/07/29 10:23:30;;;;;;;6.68;4.47;;;;;;;31.42;43.45;94739.88;5103824;28;20196;-87
2022/07/29 10:25:59;;;;;;;4.57;3.90;;;;;;;31.24;43.09;94715.56;5104620;28;20205;-90
2022/07/29 10:28:27;;;;;;;4.78;4.38;;;;;;;30.21;43.09;94568.78;5108349;28;20217;-89
2022/07/29 10:31:02;;;;;;;5.15;4.18;;;;;;;31.21;43.18;94718.72;5108877;28;20197;-86
2022/07/29 10:33:48;;;;;;;5.95;4.50;;;;;;;31.34;43.31;94724.56;5107270;28;20185;-85
2022/07/29 10:36:33;;;;;;;6.30;4.53;;;;;;;31.36;43.74;94727.75;5105333;28;20181;-86
2022/07/29 10:39:12;;;;;;;4.53;4.13;;;;;;;31.36;43.84;94720.59;5106945;28;20185;-86
2022/07/29 10:42:09;;;;;;;6.82;4.32;;;;;;;30.86;43.53;94669.38;5106960;28;21057;-86
2022/07/29 10:44:40;;;;;;;5.45;4.38;;;;;;;30.53;43.60;94601.22;5105603;28;20209;-88
2022/07/29 10:47:08;;;;;;;5.32;4.38;;;;;;;30.94;43.76;94663.56;5109980;28;20223;-91
2022/07/29 10:49:35;;;;;;;5.30;4.03;;;;;;;31.31;43.76;94717.97;5110235;28;20201;-87
2022/07/29 10:52:05;;;;;;;5.03;4.35;;;;;;;30.18;42.90;94571.16;5108739;28;20200;-88
2022/07/29 10:54:53;;;;;;;6.32;4.38;;;;;;;31.20;42.97;94697.88;5107279;28;20193;-88
2022/07/29 10:57:30;;;;;;;5.30;4.88;;;;;;;31.26;42.89;94702.06;5105903;28;20575;-88
2022/07/29 11:00:27;;;;;;;4.82;4.43;;;;;;;31.08;43.43;94668.28;5105330;28;20195;-87
2022/07/29 11:02:57;;;;;;;6.13;4.70;;;;;;;31.21;43.61;94697.59;5099563;28;20283;-86
2022/07/29 11:05:28;;;;;;;4.38;3.97;;;;;;;31.15;43.87;94676.75;5106945;28;20193;-87
2022/07/29 11:08:19;;;;;;;5.20;4.70;;;;;;;31.19;43.96;94683.88;5106715;28;20220;-87
2022/07/29 11:10:47;;;;;;;5.18;4.68;;;;;;;31.21;44.14;94684.38;5107256;28;20201;-87
2022/07/29 11:13:50;;;;;;;6.07;5.00;;;;;;;31.29;44.09;94679.66;5106478;28;20671;-89
2022/07/29 11:16:17;;;;;;;5.20;4.70;;;;;;;31.24;43.82;94698.91;5106234;28;20199;-90
2022/07/29 11:19:22;;;;;;;5.68;4.55;;;;;;;31.29;43.88;94684.94;5101071;28;20205;-88
2022/07/29 11:21:51;;;;;;;5.28;4.70;;;;;;;31.31;43.62;94688.91;5091175;28;20653;-87
2022/07/29 11:24:23;;;;;;;5.88;4.60;;;;;;;31.22;43.61;94656.13;5092745;28;20276;-87
2022/07/29 11:27:23;;;;;;;5.00;4.60;;;;;;;31.19;43.37;94648.72;5093758;28;20284;-88
2022/07/29 11:29:54;;;;;;;5.13;4.63;;;;;;;31.27;43.02;94679.91;5094096;28;20188;-88
2022/07/29 11:32:23;;;;;;;5.50;4.90;;;;;;;29.61;42.85;94413.94;5104816;28;20196;-86
2022/07/29 11:35:13;;;;;;;4.78;4.38;;;;;;;30.87;43.02;94615.50;5095837;28;20206;-88
2022/07/29 11:37:40;;;;;;;4.75;4.35;;;;;;;31.33;42.97;94670.91;5095506;28;20284;-87
2022/07/29 11:40:19;;;;;;;6.47;4.82;;;;;;;31.28;42.66;94678.88;5106149;28;20648;-89
2022/07/29 11:42:47;;;;;;;5.43;4.93;;;;;;;30.49;42.35;94556.13;5101844;28;20274;-89
2022/07/29 11:45:18;;;;;;;5.60;5.10;;;;;;;30.19;42.86;94512.06;5097718;28;20204;-86